Flight Track Log - Related Links

Times and Time Zones

All times are in EDT time to prevent confusion due to time zone crossing. See the N200PZ flight status page for this flight to view local times or setup timezone preferences in your user account.

Time Position Orientation Groundspeed Altitude Reporting Facility
EDT Latitude Longitude Course Direction KTS MPH feet Rate Location/Type
Wed 09:32:50 PM 44.0439 -92.6017 336° Northwest 230 265 6,100  Level Minneapolis Center
Wed 09:33:51 PM 44.1103 -92.6286 344° North 233 268 6,000 -49 Descending Minneapolis Center
Wed 09:34:53 PM 44.1697 -92.6561 342° North 230 265 6,000  Level Minneapolis Center
Wed 09:35:55 PM 44.2319 -92.6917 338° Northwest 229 264 6,000  Level Minneapolis Center
Wed 09:36:00 PM 44.2164 -92.6549 339° North  Level FlightAware Approximate
Wed 09:36:57 PM 44.2903 -92.7231 339° North 228 262 6,000  Level Minneapolis Center
Wed 09:37:00 PM 44.2688 -92.6825 339° North  Level FlightAware Approximate
Wed 09:37:59 PM 44.3503 -92.7503 342° North 228 262 6,000  Level Minneapolis Center
Wed 09:39:01 PM 44.4097 -92.7819 339° North 229 264 5,500 -677 Descending Minneapolis Center
Wed 09:40:03 PM 44.4686 -92.8111 341° North 228 262 4,600 -919 Descending Minneapolis Center
Wed 09:41:05 PM 44.5261 -92.8350 344° North 221 254 3,600 -976 Descending Minneapolis Center
Wed 09:42:06 PM 44.5967 -92.8611 345° North 219 252 2,600 -634 Descending Minneapolis Center
Wed 09:43:08 PM 44.6514 -92.8764 349° North 207 238 2,300 -48 Descending Minneapolis Center
Wed 09:44:10 PM 44.7014 -92.8936 346° North 191 220 2,500 97 Climbing Minneapolis Center
Wed 09:45:12 PM 44.7519 -92.9111 346° North 190 219 2,500  Level Minneapolis Center
Wed 09:46:13 PM 44.7994 -92.9344 341° North 188 216 2,500 -98 Level Minneapolis Center
Wed 09:47:15 PM 44.8506 -92.9831 326° Northwest 185 213 2,300 -339 Descending Minneapolis Center
Wed 09:48:17 PM 44.8806 -93.0111 326° Northwest 133 153 1,800 -532 Descending Minneapolis Center
Wed 09:49:19 PM 44.9089 -93.0375 327° Northwest 126 145 1,200 -341 Descending Minneapolis Center
Wed 09:50:20 PM 44.9364 -93.0636 326° Northwest 126 145 1,100 -98 Descending Minneapolis Center
Wed 09:52:00 PM 44.9333 -93.0500 North  Level FlightAware Approximate

Login

Don't have an account? Register now (free) for customized features, flight alerts, and more!